createdAt,value
2018-01-12T00:02:21.103Z,29.10
2018-01-12T00:04:55.874Z,25.70
2018-01-12T00:07:30.451Z,30.53
2018-01-12T00:10:04.944Z,25.17
2018-01-12T00:12:39.506Z,25.90
2018-01-12T00:15:15.103Z,24.10
2018-01-12T00:17:49.215Z,23.57
2018-01-12T00:20:24.186Z,23.30
2018-01-12T00:22:58.719Z,25.40
2018-01-12T00:25:34.299Z,28.93
2018-01-12T00:28:08.464Z,24.73
2018-01-12T00:30:42.484Z,25.97
2018-01-12T00:33:17.412Z,26.20
2018-01-12T00:35:52.497Z,23.77
2018-01-12T00:38:27.383Z,25.77
2018-01-12T00:41:01.904Z,22.43
2018-01-12T00:43:37.066Z,26.93
2018-01-12T00:46:12.709Z,23.53
2018-01-12T00:48:47.315Z,26.47
2018-01-12T00:51:22.859Z,26.90
2018-01-12T00:53:57.320Z,27.47
2018-01-12T00:56:32.311Z,31.10
2018-01-12T00:59:07.123Z,30.77
2018-01-12T01:01:41.825Z,24.97
2018-01-12T01:04:16.081Z,23.93
2018-01-12T01:06:50.855Z,21.77
2018-01-12T01:09:25.739Z,25.17
2018-01-12T01:12:00.503Z,26.63
2018-01-12T01:14:35.195Z,25.10
2018-01-12T01:17:09.820Z,27.80
2018-01-12T01:19:44.612Z,27.03
2018-01-12T01:22:19.477Z,25.30
2018-01-12T01:24:53.710Z,26.77
2018-01-12T01:27:28.391Z,29.37
2018-01-12T01:30:03.277Z,26.37
2018-01-12T01:32:38.757Z,28.40
2018-01-12T01:35:12.984Z,26.47
2018-01-12T01:37:47.611Z,26.03
2018-01-12T01:40:22.277Z,28.50
2018-01-12T01:42:57.191Z,25.43
2018-01-12T01:45:32.294Z,27.07
2018-01-12T01:48:06.541Z,26.80
2018-01-12T01:50:41.369Z,25.47
2018-01-12T01:53:15.225Z,26.87
2018-01-12T01:55:49.803Z,26.60
2018-01-12T01:58:25.458Z,25.03
2018-01-12T02:01:00.345Z,26.33
2018-01-12T02:03:44.425Z,25.97
2018-01-12T02:06:18.493Z,25.10
2018-01-12T02:08:53.159Z,27.10
2018-01-12T02:11:27.813Z,25.33
2018-01-12T02:14:01.796Z,30.97
2018-01-12T02:16:37.338Z,27.57
2018-01-12T02:19:12.125Z,28.17
2018-01-12T02:21:46.079Z,25.27
2018-01-12T02:24:20.605Z,26.77
2018-01-12T02:26:56.146Z,25.50
2018-01-12T02:29:30.143Z,24.17
2018-01-12T02:32:07.335Z,25.17
2018-01-12T02:34:42.273Z,25.87
2018-01-12T02:37:17.511Z,25.03
2018-01-12T02:39:51.741Z,26.20
2018-01-12T02:42:26.350Z,25.03
2018-01-12T02:45:01.495Z,26.87
2018-01-12T02:47:36.149Z,25.07
2018-01-12T02:50:10.922Z,25.83
2018-01-12T02:52:45.567Z,26.37
2018-01-12T02:55:22.136Z,25.90
2018-01-12T02:57:57.275Z,25.57
2018-01-12T03:00:32.920Z,25.23
2018-01-12T03:03:09.475Z,25.33
2018-01-12T03:05:45.881Z,25.27
2018-01-12T03:08:20.668Z,24.33
2018-01-12T03:10:55.181Z,24.77
2018-01-12T03:13:29.730Z,25.27
2018-01-12T03:16:05.108Z,25.40
2018-01-12T03:18:39.036Z,26.57
2018-01-12T03:21:14.634Z,25.43
2018-01-12T03:23:50.686Z,25.07
2018-01-12T03:26:25.093Z,23.67
2018-01-12T03:28:59.319Z,24.17
2018-01-12T03:31:33.941Z,25.77
2018-01-12T03:34:08.588Z,24.17
2018-01-12T03:36:43.379Z,25.07
2018-01-12T03:39:18.044Z,24.93
2018-01-12T03:41:52.229Z,24.50
2018-01-12T03:44:26.073Z,23.07
2018-01-12T03:47:00.874Z,23.00
2018-01-12T03:49:37.046Z,24.17
2018-01-12T03:52:11.210Z,24.27
2018-01-12T03:54:46.999Z,23.37
2018-01-12T03:57:21.801Z,22.93
2018-01-12T03:59:56.671Z,23.43
2018-01-12T04:02:31.393Z,24.27
2018-01-12T04:05:06.055Z,22.20
2018-01-12T04:07:40.736Z,22.53
2018-01-12T04:10:14.823Z,22.37
2018-01-12T04:12:50.272Z,21.17
2018-01-12T04:15:24.396Z,22.57
2018-01-12T04:17:59.241Z,22.03
2018-01-12T04:20:33.042Z,22.00
2018-01-12T04:23:08.995Z,21.03
2018-01-12T04:25:43.772Z,21.47
2018-01-12T04:28:17.936Z,21.20
2018-01-12T04:30:52.565Z,20.47
2018-01-12T04:33:26.530Z,20.83
2018-01-12T04:36:01.098Z,21.63
2018-01-12T04:38:35.348Z,20.47
2018-01-12T04:41:10.128Z,22.13
2018-01-12T04:43:44.554Z,20.93
2018-01-12T04:46:18.425Z,21.70
2018-01-12T04:48:52.482Z,21.20
2018-01-12T04:51:27.120Z,21.13
2018-01-12T04:54:02.095Z,20.80
2018-01-12T04:56:36.903Z,21.37
2018-01-12T04:59:11.027Z,21.67
2018-01-12T05:01:46.529Z,19.70
2018-01-12T05:04:21.521Z,20.03
2018-01-12T05:06:55.402Z,19.70
2018-01-12T05:09:29.139Z,20.40
2018-01-12T05:12:03.788Z,20.60
2018-01-12T05:14:37.969Z,19.60
2018-01-12T05:17:12.531Z,20.23
2018-01-12T05:19:46.573Z,21.40
2018-01-12T05:22:21.468Z,20.07
2018-01-12T05:24:56.299Z,20.67
2018-01-12T05:27:31.492Z,21.53
2018-01-12T05:30:06.384Z,20.70
2018-01-12T05:32:41.026Z,20.57
2018-01-12T05:35:15.078Z,19.77
2018-01-12T05:37:48.865Z,20.83
2018-01-12T05:40:24.634Z,22.03
2018-01-12T05:42:58.977Z,20.03
2018-01-12T05:45:33.744Z,18.93
2018-01-12T05:48:08.207Z,20.33
2018-01-12T05:50:42.083Z,18.73
2018-01-12T05:53:15.772Z,20.03
2018-01-12T05:55:49.949Z,20.73
2018-01-12T05:58:24.582Z,20.33
2018-01-12T06:01:10.671Z,21.83
2018-01-12T06:03:57.281Z,19.93
2018-01-12T06:06:31.938Z,21.10
2018-01-12T06:09:05.967Z,20.67
2018-01-12T06:11:39.651Z,21.00
2018-01-12T06:14:13.513Z,20.77
2018-01-12T06:16:48.101Z,20.73
2018-01-12T06:19:22.069Z,20.27
2018-01-12T06:21:55.955Z,21.30
2018-01-12T06:24:30.369Z,21.60
2018-01-12T06:27:05.379Z,22.10
2018-01-12T06:29:39.181Z,20.97
2018-01-12T06:32:12.978Z,22.77
2018-01-12T06:34:46.698Z,21.10
2018-01-12T06:37:20.391Z,21.20
2018-01-12T06:39:54.140Z,22.30
2018-01-12T06:42:27.892Z,23.10
2018-01-12T06:45:02.369Z,22.40
2018-01-12T06:47:36.282Z,21.47
2018-01-12T06:50:11.919Z,21.33
2018-01-12T06:52:45.892Z,21.90
2018-01-12T06:55:19.657Z,22.53
2018-01-12T06:57:54.366Z,20.73
2018-01-12T07:00:27.996Z,20.67
2018-01-12T07:03:01.948Z,21.40
2018-01-12T07:05:35.734Z,20.57
2018-01-12T07:08:11.157Z,20.33
2018-01-12T07:10:45.053Z,21.63
2018-01-12T07:13:19.782Z,22.00
2018-01-12T07:15:53.698Z,23.93
2018-01-12T07:18:27.495Z,33.27
2018-01-12T07:21:12.966Z,21.87
2018-01-12T07:23:47.296Z,21.23
2018-01-12T07:26:20.993Z,21.33
2018-01-12T07:28:55.673Z,19.60
2018-01-12T07:31:29.542Z,21.33
2018-01-12T07:34:03.438Z,19.97
2018-01-12T07:36:38.122Z,21.00
2018-01-12T07:39:12.750Z,19.90
2018-01-12T07:41:47.613Z,19.23
2018-01-12T07:44:21.770Z,19.60
2018-01-12T07:46:55.571Z,20.57
2018-01-12T07:49:29.346Z,20.13
2018-01-12T07:52:04.022Z,22.37
2018-01-12T07:54:38.956Z,20.00
2018-01-12T07:57:13.043Z,20.90
2018-01-12T07:59:47.722Z,22.40
2018-01-12T08:02:27.738Z,21.67
2018-01-12T08:05:01.562Z,20.73
2018-01-12T08:07:36.375Z,20.23
2018-01-12T08:10:11.135Z,20.27
2018-01-12T08:12:45.024Z,20.57
2018-01-12T08:15:19.938Z,21.37
2018-01-12T08:17:54.589Z,20.23
2018-01-12T08:20:28.987Z,19.63
2018-01-12T08:23:04.531Z,21.07
2018-01-12T08:25:40.281Z,25.27
2018-01-12T08:28:14.191Z,21.13
2018-01-12T08:30:48.622Z,21.03
2018-01-12T08:33:24.051Z,22.27
2018-01-12T08:35:58.875Z,20.87
2018-01-12T08:38:33.771Z,21.10
2018-01-12T08:41:08.540Z,20.37
2018-01-12T08:43:42.551Z,20.77
2018-01-12T08:46:17.217Z,22.53
2018-01-12T08:48:51.515Z,20.83
2018-01-12T08:51:25.308Z,20.43
2018-01-12T08:54:00.128Z,20.07
2018-01-12T08:56:33.812Z,21.43
2018-01-12T08:59:07.581Z,25.83
2018-01-12T09:01:41.652Z,21.30
2018-01-12T09:04:16.907Z,22.77
2018-01-12T09:06:51.756Z,20.93
2018-01-12T09:09:26.030Z,20.83
2018-01-12T09:12:00.809Z,20.83
2018-01-12T09:14:50.408Z,21.97
2018-01-12T09:17:31.273Z,21.33
2018-01-12T09:20:18.060Z,22.83
2018-01-12T09:22:53.165Z,22.87
2018-01-12T09:25:27.263Z,22.63
2018-01-12T09:28:02.146Z,21.73
2018-01-12T09:30:36.256Z,22.37
2018-01-12T09:33:10.135Z,24.33
2018-01-12T09:35:44.031Z,24.57
2018-01-12T09:38:20.181Z,25.00
2018-01-12T09:40:54.282Z,27.03
2018-01-12T09:43:28.511Z,27.43
2018-01-12T09:46:02.270Z,26.87
2018-01-12T09:48:36.126Z,26.63
2018-01-12T09:51:10.846Z,27.03
2018-01-12T09:53:44.723Z,26.87
2018-01-12T09:56:18.390Z,24.87
2018-01-12T09:58:52.996Z,28.30
2018-01-12T10:01:27.008Z,26.27
2018-01-12T10:04:01.100Z,25.33
2018-01-12T10:06:35.954Z,25.77
2018-01-12T10:09:10.813Z,25.97
2018-01-12T10:11:45.068Z,26.87
2018-01-12T10:14:19.784Z,25.67
2018-01-12T10:16:53.781Z,26.93
2018-01-12T10:19:28.391Z,25.27
2018-01-12T10:22:02.343Z,26.13
2018-01-12T10:24:37.113Z,23.80
2018-01-12T10:27:11.045Z,24.90
2018-01-12T10:29:57.044Z,25.57
2018-01-12T10:32:43.367Z,27.13
2018-01-12T10:35:18.803Z,26.47
2018-01-12T10:37:52.645Z,26.73
2018-01-12T10:40:48.095Z,26.27
2018-01-12T10:43:24.543Z,24.23
2018-01-12T10:46:08.132Z,26.00
2018-01-12T10:48:54.132Z,25.00
2018-01-12T10:51:37.080Z,26.63
2018-01-12T10:54:11.994Z,26.00
2018-01-12T10:56:46.193Z,26.97
2018-01-12T10:59:19.955Z,26.27
2018-01-12T11:01:53.698Z,26.77
2018-01-12T11:04:28.332Z,26.37
2018-01-12T11:07:02.313Z,28.50
2018-01-12T11:09:36.877Z,27.63
2018-01-12T11:12:11.084Z,27.50
2018-01-12T11:14:44.893Z,27.20
2018-01-12T11:17:18.884Z,27.97
2018-01-12T11:19:52.752Z,28.70
2018-01-12T11:22:26.683Z,29.50
2018-01-12T11:25:00.464Z,28.97
2018-01-12T11:27:35.094Z,28.30
2018-01-12T11:30:09.327Z,27.83
2018-01-12T11:32:44.075Z,29.13
2018-01-12T11:35:17.948Z,30.30
2018-01-12T11:37:51.609Z,30.00
2018-01-12T11:40:25.377Z,30.17
2018-01-12T11:42:59.185Z,29.17
2018-01-12T11:45:33.938Z,29.70
2018-01-12T11:48:08.037Z,30.23
2018-01-12T11:50:42.820Z,28.93
2018-01-12T11:53:16.771Z,29.40
2018-01-12T11:55:51.312Z,29.97
2018-01-12T11:58:25.474Z,29.23
2018-01-12T12:01:00.177Z,29.60
2018-01-12T12:03:34.318Z,28.10
2018-01-12T12:06:09.795Z,29.60
2018-01-12T12:08:43.896Z,28.47
2018-01-12T12:11:18.451Z,29.30
2018-01-12T12:13:52.461Z,30.53
2018-01-12T12:16:26.148Z,30.07
2018-01-12T12:19:00.087Z,32.50
2018-01-12T12:21:34.582Z,30.27
2018-01-12T12:24:09.351Z,28.57
2018-01-12T12:26:43.339Z,29.97
2018-01-12T12:29:17.356Z,30.13
2018-01-12T12:31:52.052Z,30.20
2018-01-12T12:34:25.954Z,29.00
2018-01-12T12:37:02.115Z,30.03
2018-01-12T12:39:36.570Z,29.47
2018-01-12T12:42:11.072Z,29.57
2018-01-12T12:44:45.172Z,30.33
2018-01-12T12:47:19.809Z,28.57
2018-01-12T12:49:53.781Z,29.67
2018-01-12T12:52:28.435Z,30.00
2018-01-12T12:55:03.327Z,29.07
2018-01-12T12:57:37.281Z,30.10
2018-01-12T13:00:11.402Z,28.80
2018-01-12T13:02:46.736Z,28.50
2018-01-12T13:05:20.895Z,28.30
2018-01-12T13:07:55.419Z,28.20
2018-01-12T13:10:29.386Z,28.87
2018-01-12T13:13:04.034Z,29.10
2018-01-12T13:15:37.879Z,27.63
2018-01-12T13:18:11.645Z,27.43
2018-01-12T13:20:45.407Z,27.63
2018-01-12T13:23:22.324Z,26.50
2018-01-12T13:25:56.111Z,28.23
2018-01-12T13:28:30.682Z,27.77
2018-01-12T13:31:04.845Z,27.10
2018-01-12T13:33:38.869Z,26.60
2018-01-12T13:36:12.692Z,27.23
2018-01-12T13:38:47.277Z,26.60
2018-01-12T13:41:21.359Z,28.33
2018-01-12T13:43:55.899Z,26.20
2018-01-12T13:46:29.976Z,28.13
2018-01-12T13:49:04.663Z,27.10
2018-01-12T13:51:40.182Z,27.83
2018-01-12T13:54:14.090Z,28.57
2018-01-12T13:56:49.463Z,27.40
2018-01-12T13:59:23.397Z,26.37
2018-01-12T14:01:57.891Z,29.07
2018-01-12T14:04:31.938Z,27.97
2018-01-12T14:07:06.489Z,25.27
2018-01-12T14:09:40.573Z,26.37
2018-01-12T14:12:16.400Z,25.03
2018-01-12T14:14:50.449Z,27.20
2018-01-12T14:17:24.505Z,27.17
2018-01-12T14:19:59.098Z,26.87
2018-01-12T14:22:33.687Z,25.40
2018-01-12T14:25:07.661Z,23.43
2018-01-12T14:27:42.303Z,24.27
2018-01-12T14:30:16.886Z,23.23
2018-01-12T14:32:50.934Z,22.97
2018-01-12T14:35:24.754Z,25.07
2018-01-12T14:37:58.599Z,23.70
2018-01-12T14:40:33.403Z,24.17
2018-01-12T14:43:07.782Z,23.73
2018-01-12T14:45:41.949Z,24.53
2018-01-12T14:48:16.546Z,23.80
2018-01-12T14:50:50.614Z,22.60
2018-01-12T14:53:25.277Z,23.27
2018-01-12T14:55:59.253Z,23.67
2018-01-12T14:58:33.720Z,24.33
2018-01-12T15:01:08.498Z,24.40
2018-01-12T15:03:43.459Z,27.40
2018-01-12T15:06:17.442Z,23.87
2018-01-12T15:08:51.349Z,25.53
2018-01-12T15:11:25.993Z,23.13
2018-01-12T15:13:59.654Z,23.53
2018-01-12T15:16:35.517Z,25.60
2018-01-12T15:19:09.424Z,24.00
2018-01-12T15:21:43.388Z,26.20
2018-01-12T15:24:18.191Z,26.93
2018-01-12T15:26:52.070Z,27.93
2018-01-12T15:29:26.899Z,28.00
2018-01-12T15:32:00.857Z,28.03
2018-01-12T15:34:34.917Z,29.17
2018-01-12T15:37:09.599Z,29.43
2018-01-12T15:39:44.203Z,27.03
2018-01-12T15:42:18.176Z,26.87
2018-01-12T15:44:52.039Z,25.87
2018-01-12T15:47:26.093Z,25.60
2018-01-12T15:49:59.887Z,26.37
2018-01-12T15:52:34.436Z,26.53
2018-01-12T15:55:08.647Z,26.67
2018-01-12T15:57:42.889Z,26.10
2018-01-12T16:00:16.935Z,24.17
2018-01-12T16:02:51.689Z,27.07
2018-01-12T16:05:26.185Z,27.27
2018-01-12T16:08:00.635Z,28.70
2018-01-12T16:10:34.820Z,31.40
2018-01-12T16:13:08.616Z,29.17
2018-01-12T16:15:42.341Z,33.10
2018-01-12T16:18:16.123Z,27.77
2018-01-12T16:20:50.726Z,29.40
2018-01-12T16:23:26.681Z,29.30
2018-01-12T16:26:01.302Z,29.00
2018-01-12T16:28:45.049Z,27.60
2018-01-12T16:31:22.204Z,27.07
2018-01-12T16:33:56.021Z,25.47
2018-01-12T16:36:29.858Z,24.97
2018-01-12T16:39:03.683Z,26.07
2018-01-12T16:41:37.759Z,25.93
2018-01-12T16:44:11.428Z,24.60
2018-01-12T16:46:46.269Z,23.93
2018-01-12T16:49:20.059Z,24.97
2018-01-12T16:51:55.442Z,24.33
2018-01-12T16:54:29.473Z,24.27
2018-01-12T16:57:04.207Z,25.13
2018-01-12T16:59:38.107Z,26.47
2018-01-12T17:02:13.276Z,24.33
2018-01-12T17:04:47.651Z,23.97
2018-01-12T17:07:22.332Z,23.90
2018-01-12T17:09:56.437Z,23.07
2018-01-12T17:12:30.900Z,25.13
2018-01-12T17:15:04.849Z,22.60
2018-01-12T17:17:38.800Z,22.63
2018-01-12T17:20:14.124Z,20.63
2018-01-12T17:22:49.605Z,21.87
2018-01-12T17:25:25.320Z,19.77
2018-01-12T17:27:59.507Z,20.03
2018-01-12T17:30:34.008Z,19.20
2018-01-12T17:33:08.794Z,19.87
2018-01-12T17:35:42.976Z,18.73
2018-01-12T17:38:17.613Z,17.43
2018-01-12T17:40:51.587Z,17.70
2018-01-12T17:43:26.323Z,20.10
2018-01-12T17:46:00.934Z,18.30
2018-01-12T17:48:34.798Z,18.50
2018-01-12T17:51:08.582Z,18.07
2018-01-12T17:53:42.716Z,18.67
2018-01-12T17:56:17.245Z,18.07
2018-01-12T17:58:52.044Z,17.73
2018-01-12T18:01:26.104Z,18.23
2018-01-12T18:04:00.181Z,17.97
2018-01-12T18:06:33.985Z,18.97
2018-01-12T18:09:08.562Z,17.97
2018-01-12T18:11:42.409Z,18.87
2018-01-12T18:14:17.228Z,19.80
2018-01-12T18:16:51.298Z,18.87
2018-01-12T18:19:26.135Z,19.10
2018-01-12T18:22:00.104Z,19.23
2018-01-12T18:24:34.787Z,18.63
2018-01-12T18:27:08.746Z,20.23
2018-01-12T18:29:43.498Z,18.60
2018-01-12T18:32:17.636Z,18.13
2018-01-12T18:34:51.571Z,18.40
2018-01-12T18:37:25.280Z,18.53
2018-01-12T18:39:59.232Z,18.70
2018-01-12T18:42:33.182Z,19.33
2018-01-12T18:45:07.105Z,19.53
2018-01-12T18:47:40.785Z,17.20
2018-01-12T18:50:14.496Z,19.30
2018-01-12T18:52:49.227Z,18.47
2018-01-12T18:55:24.159Z,19.93
2018-01-12T18:57:58.816Z,18.90
2018-01-12T19:00:32.868Z,18.57
2018-01-12T19:03:06.904Z,20.17
2018-01-12T19:05:41.754Z,20.80
2018-01-12T19:08:16.406Z,20.17
2018-01-12T19:10:50.264Z,20.03
2018-01-12T19:13:24.700Z,20.80
2018-01-12T19:15:58.713Z,21.07
2018-01-12T19:18:33.389Z,19.93
2018-01-12T19:21:07.447Z,21.43
2018-01-12T19:23:43.284Z,20.10
2018-01-12T19:26:18.908Z,21.47
2018-01-12T19:28:54.584Z,18.87
2018-01-12T19:31:30.741Z,21.37
2018-01-12T19:34:06.499Z,20.20
2018-01-12T19:36:42.355Z,19.43
2018-01-12T19:39:17.819Z,22.00
2018-01-12T19:41:53.869Z,20.27
2018-01-12T19:44:29.761Z,20.23
2018-01-12T19:47:05.905Z,19.97
2018-01-12T19:49:42.672Z,19.37
2018-01-12T19:52:18.529Z,20.10
2018-01-12T19:54:54.546Z,21.27
2018-01-12T19:57:30.754Z,20.77
2018-01-12T20:00:07.897Z,20.60
2018-01-12T20:02:44.147Z,22.27
2018-01-12T20:05:20.211Z,20.23
2018-01-12T20:07:56.200Z,18.83
2018-01-12T20:10:31.738Z,20.87
2018-01-12T20:13:07.865Z,20.10
2018-01-12T20:15:43.746Z,20.83
2018-01-12T20:18:19.528Z,21.10
2018-01-12T20:20:55.136Z,22.73
2018-01-12T20:23:31.302Z,20.13
2018-01-12T20:26:07.220Z,20.07
2018-01-12T20:28:43.333Z,21.43
2018-01-12T20:31:18.655Z,21.43
2018-01-12T20:33:54.593Z,21.00
2018-01-12T20:36:30.361Z,22.93
2018-01-12T20:39:06.374Z,20.57
2018-01-12T20:41:42.991Z,20.40
2018-01-12T20:44:20.351Z,21.70
2018-01-12T20:46:56.224Z,20.30
2018-01-12T20:49:32.387Z,24.87
2018-01-12T20:52:08.538Z,21.90
2018-01-12T20:54:44.599Z,20.20
2018-01-12T20:57:20.133Z,22.63
2018-01-12T20:59:56.127Z,22.03
2018-01-12T21:02:32.174Z,19.83
2018-01-12T21:05:07.628Z,22.33
2018-01-12T21:07:43.786Z,21.73
2018-01-12T21:10:20.339Z,20.93
2018-01-12T21:12:56.004Z,21.50
2018-01-12T21:15:32.554Z,19.60
2018-01-12T21:18:08.231Z,21.00
2018-01-12T21:20:45.435Z,23.70
2018-01-12T21:23:21.811Z,20.70
2018-01-12T21:25:57.969Z,21.50
2018-01-12T21:28:34.599Z,20.73
2018-01-12T21:31:10.695Z,22.33
2018-01-12T21:33:46.064Z,22.40
2018-01-12T21:36:22.268Z,20.37
2018-01-12T21:38:57.673Z,22.93
2018-01-12T21:41:34.833Z,20.47
2018-01-12T21:44:10.413Z,24.43
2018-01-12T21:46:47.200Z,21.90
2018-01-12T21:49:24.546Z,22.70
2018-01-12T21:52:01.370Z,19.97
2018-01-12T21:54:37.338Z,21.97
2018-01-12T21:57:14.464Z,19.77
2018-01-12T21:59:50.384Z,22.87
2018-01-12T22:02:26.237Z,21.40
2018-01-12T22:05:01.732Z,19.10
2018-01-12T22:07:47.136Z,19.80
2018-01-12T22:10:21.788Z,19.30
2018-01-12T22:12:57.092Z,20.00
2018-01-12T22:15:31.215Z,20.23
2018-01-12T22:18:06.529Z,18.93
2018-01-12T22:20:40.752Z,21.07
2018-01-12T22:23:16.104Z,21.17
2018-01-12T22:25:50.039Z,20.53
2018-01-12T22:28:24.077Z,18.53
2018-01-12T22:30:58.827Z,19.37
2018-01-12T22:33:32.613Z,20.77
2018-01-12T22:36:06.473Z,21.00
2018-01-12T22:38:41.120Z,18.40
2018-01-12T22:41:16.278Z,21.30
2018-01-12T22:43:50.430Z,21.50
2018-01-12T22:46:24.606Z,23.73
2018-01-12T22:48:59.301Z,20.73
2018-01-12T22:51:33.201Z,21.87
2018-01-12T22:54:08.080Z,21.97
2018-01-12T22:56:42.009Z,20.43
2018-01-12T22:59:15.996Z,20.37
2018-01-12T23:01:49.670Z,24.30
2018-01-12T23:04:23.618Z,21.00
2018-01-12T23:06:57.379Z,19.67
2018-01-12T23:09:31.932Z,19.67
2018-01-12T23:12:06.712Z,21.43
2018-01-12T23:14:40.809Z,20.33
2018-01-12T23:17:14.714Z,19.67
2018-01-12T23:19:48.599Z,19.30
2018-01-12T23:22:23.079Z,19.73
2018-01-12T23:24:57.353Z,22.63
2018-01-12T23:27:31.888Z,20.80
2018-01-12T23:30:06.304Z,22.13
2018-01-12T23:32:41.475Z,21.70
2018-01-12T23:35:16.515Z,21.10
2018-01-12T23:37:51.220Z,23.40
2018-01-12T23:40:26.342Z,21.57
2018-01-12T23:43:00.980Z,20.67
2018-01-12T23:45:35.178Z,22.10
2018-01-12T23:48:09.231Z,25.37
2018-01-12T23:50:43.861Z,23.90
2018-01-12T23:53:17.843Z,21.07
2018-01-12T23:55:52.625Z,18.53
2018-01-12T23:58:26.717Z,22.13
